createdAt,value
2019-04-26T00:01:16.440Z,26.20
2019-04-26T00:03:47.873Z,25.73
2019-04-26T00:06:18.929Z,25.83
2019-04-26T00:09:09.384Z,26.23
2019-04-26T00:11:52.371Z,26.07
2019-04-26T00:14:42.048Z,25.60
2019-04-26T00:17:17.510Z,26.40
2019-04-26T00:19:48.628Z,26.43
2019-04-26T00:22:19.529Z,25.37
2019-04-26T00:24:50.113Z,26.73
2019-04-26T00:27:21.307Z,26.60
2019-04-26T00:29:52.005Z,26.53
2019-04-26T00:32:22.647Z,28.00
2019-04-26T00:34:53.339Z,26.17
2019-04-26T00:37:23.913Z,25.27
2019-04-26T00:39:54.491Z,26.80
2019-04-26T00:42:25.259Z,27.13
2019-04-26T00:44:57.200Z,27.17
2019-04-26T00:47:28.694Z,28.90
2019-04-26T00:50:00.280Z,27.63
2019-04-26T00:52:31.499Z,29.87
2019-04-26T00:55:02.802Z,27.63
2019-04-26T00:57:34.671Z,28.70
2019-04-26T01:00:06.912Z,28.43
2019-04-26T01:02:43.042Z,27.87
2019-04-26T01:05:14.568Z,28.40
2019-04-26T01:07:47.724Z,29.00
2019-04-26T01:10:19.563Z,30.13
2019-04-26T01:12:50.427Z,27.67
2019-04-26T01:15:22.050Z,28.57
2019-04-26T01:17:53.279Z,30.47
2019-04-26T01:20:25.509Z,30.23
2019-04-26T01:23:00.396Z,30.27
2019-04-26T01:25:44.243Z,32.00
2019-04-26T01:28:21.391Z,28.73
2019-04-26T01:30:54.837Z,30.27
2019-04-26T01:33:26.118Z,30.13
2019-04-26T01:35:56.859Z,30.63
2019-04-26T01:38:27.718Z,29.17
2019-04-26T01:41:01.711Z,30.93
2019-04-26T01:43:54.554Z,30.10
2019-04-26T01:46:32.025Z,29.73
2019-04-26T01:49:07.877Z,30.90
2019-04-26T01:51:46.270Z,30.97
2019-04-26T01:54:21.522Z,32.77
2019-04-26T01:56:56.140Z,32.43
2019-04-26T01:59:27.423Z,33.53
2019-04-26T02:02:09.486Z,34.27
2019-04-26T02:04:42.909Z,32.50
2019-04-26T02:07:15.997Z,33.23
2019-04-26T02:09:46.585Z,34.23
2019-04-26T02:12:17.289Z,34.90
2019-04-26T02:14:47.853Z,35.67
2019-04-26T02:17:18.549Z,36.53
2019-04-26T02:19:49.371Z,37.23
2019-04-26T02:22:27.929Z,37.47
2019-04-26T02:25:10.438Z,40.53
2019-04-26T02:27:41.042Z,37.83
2019-04-26T02:30:11.948Z,36.67
2019-04-26T02:32:44.721Z,37.70
2019-04-26T02:35:15.209Z,36.10
2019-04-26T02:37:45.926Z,36.47
2019-04-26T02:40:18.964Z,33.97
2019-04-26T02:42:50.038Z,36.27
2019-04-26T02:45:51.878Z,35.27
2019-04-26T02:48:42.158Z,36.30
2019-04-26T02:51:18.048Z,36.10
2019-04-26T02:54:14.255Z,34.90
2019-04-26T02:56:47.527Z,35.13
2019-04-26T02:59:40.764Z,34.27
2019-04-26T03:02:21.427Z,34.17
2019-04-26T03:04:56.660Z,32.13
2019-04-26T03:07:43.164Z,33.90
2019-04-26T03:10:14.128Z,33.87
2019-04-26T03:12:47.460Z,35.57
2019-04-26T03:15:31.613Z,35.20
2019-04-26T03:18:23.589Z,34.60
2019-04-26T03:21:00.006Z,34.77
2019-04-26T03:23:56.264Z,37.93
2019-04-26T03:26:35.628Z,39.30
2019-04-26T03:29:25.843Z,42.03
2019-04-26T03:32:27.108Z,40.47
2019-04-26T03:35:24.459Z,42.90
2019-04-26T03:38:24.229Z,40.10
2019-04-26T03:41:13.231Z,40.30
2019-04-26T03:44:06.363Z,42.63
2019-04-26T03:46:57.121Z,41.07
2019-04-26T03:49:54.577Z,38.93
2019-04-26T03:52:39.490Z,40.17
2019-04-26T03:55:49.276Z,39.77
2019-04-26T03:58:27.683Z,38.07
2019-04-26T04:01:04.690Z,35.87
2019-04-26T04:03:57.451Z,36.47
2019-04-26T04:06:31.532Z,37.20
2019-04-26T04:09:08.273Z,34.77
2019-04-26T04:12:09.577Z,31.93
2019-04-26T04:14:42.894Z,31.97
2019-04-26T04:17:41.296Z,32.27
2019-04-26T04:20:30.395Z,31.00
2019-04-26T04:23:41.287Z,32.43
2019-04-26T04:26:15.091Z,31.23
2019-04-26T04:29:18.331Z,31.60
2019-04-26T04:31:53.770Z,32.37
2019-04-26T04:34:40.062Z,31.47
2019-04-26T04:37:15.775Z,31.37
2019-04-26T04:40:14.535Z,31.90
2019-04-26T04:43:27.410Z,30.83
2019-04-26T04:46:36.836Z,30.37
2019-04-26T04:49:23.944Z,29.80
2019-04-26T04:52:20.759Z,29.43
2019-04-26T04:55:07.072Z,30.87
2019-04-26T04:57:38.943Z,29.23
2019-04-26T05:00:36.843Z,28.57
2019-04-26T05:03:36.729Z,29.60
2019-04-26T05:06:26.220Z,27.87
2019-04-26T05:09:08.261Z,28.43
2019-04-26T05:12:05.007Z,27.57
2019-04-26T05:14:48.050Z,28.23
2019-04-26T05:17:36.918Z,27.63
2019-04-26T05:20:28.052Z,27.33
2019-04-26T05:23:36.979Z,27.13
2019-04-26T05:26:53.565Z,26.73
2019-04-26T05:29:54.421Z,25.57
2019-04-26T05:32:51.159Z,26.97
2019-04-26T05:35:43.007Z,25.77
2019-04-26T05:38:33.091Z,26.00
2019-04-26T05:41:19.109Z,25.90
2019-04-26T05:44:12.910Z,25.30
2019-04-26T05:47:05.823Z,26.77
2019-04-26T05:50:20.459Z,25.43
2019-04-26T05:53:13.839Z,25.20
2019-04-26T05:56:19.934Z,23.63
2019-04-26T05:59:16.407Z,23.27
2019-04-26T06:02:30.049Z,21.60
2019-04-26T06:05:22.753Z,22.90
2019-04-26T06:08:31.554Z,23.40
2019-04-26T06:11:06.791Z,21.53
2019-04-26T06:14:16.539Z,21.40
2019-04-26T06:17:26.553Z,20.17
2019-04-26T06:20:23.030Z,21.00
2019-04-26T06:23:29.182Z,21.43
2019-04-26T06:26:34.140Z,19.60
2019-04-26T06:29:08.685Z,21.33
2019-04-26T06:31:51.236Z,19.97
2019-04-26T06:34:44.719Z,19.98
2019-04-26T06:37:30.820Z,19.73
2019-04-26T06:40:15.000Z,19.15
2019-04-26T06:43:26.548Z,20.70
2019-04-26T06:46:27.429Z,18.45
2019-04-26T06:49:18.787Z,18.40
2019-04-26T06:51:57.076Z,17.48
2019-04-26T06:54:51.304Z,18.73
2019-04-26T06:58:07.336Z,18.77
2019-04-26T07:01:10.783Z,16.70
2019-04-26T07:03:58.183Z,18.07
2019-04-26T07:06:35.196Z,18.05
2019-04-26T07:09:11.698Z,17.65
2019-04-26T07:12:41.589Z,18.02
2019-04-26T07:15:49.528Z,18.75
2019-04-26T07:18:47.138Z,17.45
2019-04-26T07:21:43.929Z,17.55
2019-04-26T07:25:02.159Z,16.70
2019-04-26T07:28:03.640Z,15.85
2019-04-26T07:30:54.568Z,15.72
2019-04-26T07:33:50.289Z,15.50
2019-04-26T07:37:02.898Z,14.15
2019-04-26T07:40:31.151Z,14.53
2019-04-26T07:43:32.509Z,15.40
2019-04-26T07:46:40.359Z,14.23
2019-04-26T07:49:49.509Z,13.88
2019-04-26T07:52:36.545Z,13.13
2019-04-26T07:55:45.666Z,14.53
2019-04-26T07:58:42.360Z,12.88
2019-04-26T08:01:29.595Z,12.73
2019-04-26T08:04:09.492Z,12.88
2019-04-26T08:06:55.809Z,12.80
2019-04-26T08:09:28.590Z,12.53
2019-04-26T08:12:06.067Z,13.03
2019-04-26T08:14:49.442Z,11.80
2019-04-26T08:17:45.226Z,13.35
2019-04-26T08:20:55.682Z,13.50
2019-04-26T08:23:39.651Z,11.65
2019-04-26T08:26:13.529Z,11.55
2019-04-26T08:28:46.827Z,11.20
2019-04-26T08:31:24.402Z,10.30
2019-04-26T08:33:59.422Z,11.30
2019-04-26T08:36:35.349Z,11.55
2019-04-26T08:39:13.023Z,10.58
2019-04-26T08:41:45.891Z,9.85
2019-04-26T08:44:24.414Z,11.03
2019-04-26T08:47:16.370Z,10.80
2019-04-26T08:49:51.268Z,10.32
2019-04-26T08:52:25.162Z,11.20
2019-04-26T08:54:57.844Z,10.98
2019-04-26T08:57:33.108Z,10.05
2019-04-26T09:00:09.673Z,10.00
2019-04-26T09:03:11.332Z,9.95
2019-04-26T09:05:57.249Z,9.83
2019-04-26T09:08:32.868Z,10.53
2019-04-26T09:11:05.836Z,9.88
2019-04-26T09:13:40.687Z,10.18
2019-04-26T09:16:14.984Z,10.05
2019-04-26T09:18:52.602Z,9.63
2019-04-26T09:21:28.907Z,9.13
2019-04-26T09:24:13.761Z,8.43
2019-04-26T09:26:48.541Z,9.05
2019-04-26T09:29:38.481Z,8.85
2019-04-26T09:32:11.917Z,8.60
2019-04-26T09:34:43.203Z,8.58
2019-04-26T09:37:14.223Z,8.73
2019-04-26T09:39:44.920Z,8.55
2019-04-26T09:42:39.249Z,7.85
2019-04-26T09:45:27.532Z,8.50
2019-04-26T09:48:13.764Z,7.10
2019-04-26T09:50:46.939Z,6.62
2019-04-26T09:53:18.575Z,7.15
2019-04-26T09:55:49.266Z,7.10
2019-04-26T09:58:19.930Z,7.10
2019-04-26T10:00:50.842Z,7.25
2019-04-26T10:03:21.669Z,6.40
2019-04-26T10:05:55.801Z,6.97
2019-04-26T10:08:25.063Z,6.97
2019-04-26T10:10:55.640Z,5.80
2019-04-26T10:13:33.208Z,5.75
2019-04-26T10:16:23.034Z,5.67
2019-04-26T10:18:58.327Z,5.10
2019-04-26T10:21:30.197Z,5.85
2019-04-26T10:24:00.861Z,5.47
2019-04-26T10:26:31.414Z,5.92
2019-04-26T10:29:03.189Z,6.62
2019-04-26T10:31:33.888Z,5.20
2019-04-26T10:34:07.675Z,5.62
2019-04-26T10:36:37.181Z,6.20
2019-04-26T10:39:10.337Z,4.85
2019-04-26T10:41:42.124Z,5.60
2019-04-26T10:44:12.882Z,4.72
2019-04-26T10:46:54.999Z,5.35
2019-04-26T10:49:40.545Z,5.00
2019-04-26T10:52:18.741Z,5.37
2019-04-26T10:54:55.705Z,5.47
2019-04-26T10:57:33.074Z,5.67
2019-04-26T11:00:07.120Z,5.20
2019-04-26T11:02:37.836Z,5.40
2019-04-26T11:05:11.654Z,5.62
2019-04-26T11:07:41.259Z,5.85
2019-04-26T11:10:12.153Z,5.10
2019-04-26T11:12:44.832Z,5.80
2019-04-26T11:15:18.318Z,5.90
2019-04-26T11:17:49.970Z,5.78
2019-04-26T11:20:23.219Z,5.97
2019-04-26T11:22:54.143Z,6.15
2019-04-26T11:25:28.132Z,5.60
2019-04-26T11:27:57.299Z,6.12
2019-04-26T11:30:28.110Z,5.53
2019-04-26T11:32:58.837Z,5.15
2019-04-26T11:35:33.222Z,5.67
2019-04-26T11:38:02.055Z,4.97
2019-04-26T11:40:32.807Z,5.53
2019-04-26T11:43:03.727Z,5.10
2019-04-26T11:45:34.349Z,5.17
2019-04-26T11:48:05.115Z,5.70
2019-04-26T11:50:36.059Z,4.92
2019-04-26T11:53:10.138Z,5.00
2019-04-26T11:55:39.152Z,5.33
2019-04-26T11:58:09.896Z,5.22
2019-04-26T12:00:45.029Z,6.45
2019-04-26T12:03:15.779Z,5.58
2019-04-26T12:06:05.937Z,4.95
2019-04-26T12:08:42.522Z,5.00
2019-04-26T12:11:18.641Z,5.10
2019-04-26T12:13:45.655Z,4.55
2019-04-26T12:16:18.891Z,4.80
2019-04-26T12:18:49.120Z,5.08
2019-04-26T12:21:19.806Z,4.80
2019-04-26T12:23:55.500Z,4.80
2019-04-26T12:26:25.543Z,4.22
2019-04-26T12:28:56.242Z,4.55
2019-04-26T12:31:26.800Z,4.78
2019-04-26T12:33:57.729Z,3.65
2019-04-26T12:36:28.448Z,4.08
2019-04-26T12:39:02.253Z,4.70
2019-04-26T12:41:40.232Z,4.58
2019-04-26T12:44:07.397Z,4.00
2019-04-26T12:46:46.333Z,4.50
2019-04-26T12:49:20.256Z,4.40
2019-04-26T12:51:52.051Z,4.72
2019-04-26T12:54:21.815Z,4.90
2019-04-26T12:56:52.739Z,4.45
2019-04-26T12:59:26.603Z,4.53
2019-04-26T13:02:05.435Z,4.47
2019-04-26T13:04:36.031Z,4.08
2019-04-26T13:07:24.018Z,4.42
2019-04-26T13:10:10.978Z,4.12
2019-04-26T13:12:50.007Z,4.30
2019-04-26T13:16:02.856Z,3.95
2019-04-26T13:18:33.627Z,4.00
2019-04-26T13:21:04.484Z,4.10
2019-04-26T13:23:35.432Z,3.72
2019-04-26T13:26:06.037Z,3.75
2019-04-26T13:28:36.584Z,4.40
2019-04-26T13:31:08.341Z,4.17
2019-04-26T13:33:38.933Z,4.15
2019-04-26T13:36:09.984Z,3.77
2019-04-26T13:38:43.424Z,4.15
2019-04-26T13:41:13.937Z,3.98
2019-04-26T13:43:44.884Z,4.37
2019-04-26T13:46:34.689Z,4.22
2019-04-26T13:49:24.640Z,3.87
2019-04-26T13:51:55.311Z,4.40
2019-04-26T13:54:26.001Z,5.08
2019-04-26T13:56:56.788Z,4.33
2019-04-26T13:59:28.088Z,4.62
2019-04-26T14:02:10.884Z,4.37
2019-04-26T14:04:32.073Z,4.28
2019-04-26T14:07:05.117Z,4.05
2019-04-26T14:09:35.839Z,4.72
2019-04-26T14:12:18.133Z,3.75
2019-04-26T14:14:39.367Z,4.92
2019-04-26T14:17:09.926Z,4.78
2019-04-26T14:19:40.717Z,4.20
2019-04-26T14:22:12.789Z,4.37
2019-04-26T14:24:53.070Z,4.20
2019-04-26T14:27:45.454Z,3.58
2019-04-26T14:30:16.537Z,4.45
2019-04-26T14:32:47.205Z,4.65
2019-04-26T14:35:17.970Z,5.15
2019-04-26T14:37:49.947Z,4.83
2019-04-26T14:40:20.920Z,5.17
2019-04-26T14:43:05.702Z,4.53
2019-04-26T14:45:24.276Z,4.97
2019-04-26T14:48:00.177Z,4.35
2019-04-26T14:50:32.069Z,4.90
2019-04-26T14:53:02.342Z,4.95
2019-04-26T14:55:33.582Z,5.03
2019-04-26T14:58:04.598Z,4.70
2019-04-26T15:00:38.420Z,5.35
2019-04-26T15:03:20.846Z,5.53
2019-04-26T15:06:00.512Z,6.05
2019-04-26T15:08:33.674Z,4.87
2019-04-26T15:11:04.423Z,5.33
2019-04-26T15:13:40.311Z,5.30
2019-04-26T15:16:11.774Z,4.83
2019-04-26T15:18:42.526Z,4.90
2019-04-26T15:21:13.195Z,5.22
2019-04-26T15:23:44.038Z,4.37
2019-04-26T15:26:14.642Z,4.97
2019-04-26T15:28:50.415Z,5.65
2019-04-26T15:31:21.586Z,4.83
2019-04-26T15:33:52.827Z,4.95
2019-04-26T15:36:23.731Z,5.22
2019-04-26T15:38:55.073Z,4.42
2019-04-26T15:41:43.152Z,5.47
2019-04-26T15:44:28.388Z,5.40
2019-04-26T15:47:07.638Z,5.08
2019-04-26T15:49:50.277Z,5.12
2019-04-26T15:52:21.175Z,5.40
2019-04-26T15:54:52.991Z,4.70
2019-04-26T15:57:31.193Z,5.17
2019-04-26T15:59:58.026Z,5.37
2019-04-26T16:02:29.092Z,4.90
2019-04-26T16:04:59.969Z,5.17
2019-04-26T16:07:30.741Z,4.67
2019-04-26T16:10:01.557Z,5.35
2019-04-26T16:12:32.378Z,5.42
2019-04-26T16:15:06.670Z,5.40
2019-04-26T16:17:40.111Z,6.00
2019-04-26T16:20:10.002Z,5.20
2019-04-26T16:22:42.972Z,6.03
2019-04-26T16:25:15.474Z,6.53
2019-04-26T16:27:46.312Z,6.90
2019-04-26T16:30:37.444Z,5.70
2019-04-26T16:33:10.229Z,5.62
2019-04-26T16:35:42.106Z,5.92
2019-04-26T16:38:33.118Z,6.03
2019-04-26T16:41:06.009Z,5.70
2019-04-26T16:43:40.519Z,7.37
2019-04-26T16:46:12.654Z,6.15
2019-04-26T16:48:44.201Z,6.17
2019-04-26T16:51:14.422Z,6.37
2019-04-26T16:54:02.823Z,6.53
2019-04-26T16:56:17.481Z,5.83
2019-04-26T16:58:48.154Z,6.55
2019-04-26T17:01:19.020Z,7.10
2019-04-26T17:03:49.609Z,5.80
2019-04-26T17:06:23.271Z,6.83
2019-04-26T17:09:00.876Z,6.35
2019-04-26T17:11:26.382Z,6.70
2019-04-26T17:14:00.394Z,6.85
2019-04-26T17:16:33.600Z,5.97
2019-04-26T17:19:01.811Z,6.92
2019-04-26T17:21:37.472Z,6.62
2019-04-26T17:24:27.244Z,6.90
2019-04-26T17:27:05.310Z,7.40
2019-04-26T17:29:36.165Z,6.75
2019-04-26T17:32:09.060Z,6.95
2019-04-26T17:34:40.536Z,7.28
2019-04-26T17:37:17.066Z,6.60
2019-04-26T17:39:47.617Z,7.05
2019-04-26T17:42:17.087Z,6.75
2019-04-26T17:44:47.716Z,7.03
2019-04-26T17:47:18.271Z,7.55
2019-04-26T17:49:50.173Z,8.53
2019-04-26T17:52:21.224Z,8.58
2019-04-26T17:54:52.133Z,9.75
2019-04-26T17:57:33.745Z,9.13
2019-04-26T18:00:06.763Z,8.65
2019-04-26T18:02:41.319Z,8.30
2019-04-26T18:05:03.233Z,7.92
2019-04-26T18:07:40.621Z,9.25
2019-04-26T18:10:08.069Z,8.08
2019-04-26T18:12:40.852Z,8.93
2019-04-26T18:15:14.363Z,8.45
2019-04-26T18:18:04.336Z,10.18
2019-04-26T18:20:54.280Z,8.43
2019-04-26T18:23:26.193Z,9.33
2019-04-26T18:25:56.935Z,9.90
2019-04-26T18:28:27.663Z,9.33
2019-04-26T18:30:58.393Z,10.05
2019-04-26T18:33:29.083Z,9.23
2019-04-26T18:36:00.846Z,11.10
2019-04-26T18:38:31.588Z,10.00
2019-04-26T18:41:03.612Z,11.15
2019-04-26T18:43:34.395Z,9.88
2019-04-26T18:46:12.758Z,10.03
2019-04-26T18:48:44.015Z,10.58
2019-04-26T18:51:15.881Z,12.15
2019-04-26T18:54:09.286Z,11.22
2019-04-26T18:56:40.669Z,11.30
2019-04-26T18:59:12.905Z,10.98
2019-04-26T19:01:45.973Z,11.10
2019-04-26T19:04:16.868Z,11.20
2019-04-26T19:06:48.309Z,11.40
2019-04-26T19:09:23.513Z,11.43
2019-04-26T19:11:56.260Z,12.35
2019-04-26T19:14:49.848Z,11.50
2019-04-26T19:17:34.294Z,11.80
2019-04-26T19:20:17.169Z,11.90
2019-04-26T19:22:56.514Z,12.07
2019-04-26T19:25:29.887Z,11.50
2019-04-26T19:28:04.437Z,11.18
2019-04-26T19:30:39.973Z,11.53
2019-04-26T19:33:16.731Z,12.37
2019-04-26T19:35:48.954Z,12.13
2019-04-26T19:38:21.354Z,12.17
2019-04-26T19:40:53.963Z,11.25
2019-04-26T19:43:31.049Z,11.70
2019-04-26T19:46:07.455Z,12.00
2019-04-26T19:48:59.974Z,11.17
2019-04-26T19:51:49.319Z,12.20
2019-04-26T19:54:36.852Z,12.00
2019-04-26T19:57:05.752Z,12.90
2019-04-26T19:59:36.773Z,12.13
2019-04-26T20:02:08.149Z,12.20
2019-04-26T20:04:38.859Z,11.70
2019-04-26T20:07:11.549Z,12.50
2019-04-26T20:09:42.198Z,12.27
2019-04-26T20:12:13.483Z,12.57
2019-04-26T20:14:50.395Z,12.97
2019-04-26T20:17:19.753Z,14.53
2019-04-26T20:19:52.815Z,13.33
2019-04-26T20:22:28.142Z,12.43
2019-04-26T20:24:57.358Z,12.87
2019-04-26T20:27:27.837Z,13.27
2019-04-26T20:29:58.178Z,13.37
2019-04-26T20:32:35.585Z,13.00
2019-04-26T20:35:19.855Z,12.83
2019-04-26T20:37:52.122Z,13.00
2019-04-26T20:40:25.554Z,15.47
2019-04-26T20:43:01.666Z,14.83
2019-04-26T20:45:39.834Z,14.70
2019-04-26T20:48:02.399Z,14.50
2019-04-26T20:50:36.706Z,12.80
2019-04-26T20:53:05.833Z,14.93
2019-04-26T20:55:36.443Z,15.57
2019-04-26T20:58:08.776Z,15.50
2019-04-26T21:00:40.069Z,15.07
2019-04-26T21:03:23.181Z,17.27
2019-04-26T21:05:46.549Z,16.83
2019-04-26T21:08:19.496Z,16.77
2019-04-26T21:10:48.996Z,15.60
2019-04-26T21:13:23.673Z,17.10
2019-04-26T21:15:58.154Z,16.03
2019-04-26T21:18:24.498Z,16.60
2019-04-26T21:20:55.159Z,17.93
2019-04-26T21:23:25.881Z,19.17
2019-04-26T21:26:07.095Z,15.83
2019-04-26T21:28:54.141Z,15.33
2019-04-26T21:31:36.531Z,14.17
2019-04-26T21:34:15.917Z,15.43
2019-04-26T21:37:05.489Z,14.87
2019-04-26T21:39:44.134Z,14.67
2019-04-26T21:42:13.164Z,14.60
2019-04-26T21:44:44.687Z,14.67
2019-04-26T21:47:15.971Z,15.20
2019-04-26T21:49:47.528Z,14.10
2019-04-26T21:52:21.489Z,15.30
2019-04-26T21:54:53.132Z,14.07
2019-04-26T21:57:27.895Z,14.40
2019-04-26T21:59:55.527Z,15.50
2019-04-26T22:02:29.674Z,14.23
2019-04-26T22:04:59.103Z,15.37
2019-04-26T22:07:29.753Z,14.23
2019-04-26T22:10:09.329Z,15.63
2019-04-26T22:12:38.604Z,15.23
2019-04-26T22:15:29.521Z,14.83
2019-04-26T22:18:04.951Z,15.30
2019-04-26T22:20:54.640Z,14.93
2019-04-26T22:23:33.187Z,15.40
2019-04-26T22:26:07.287Z,15.83
2019-04-26T22:28:37.614Z,14.93
2019-04-26T22:31:08.748Z,15.50
2019-04-26T22:33:39.695Z,16.07
2019-04-26T22:36:10.337Z,15.73
2019-04-26T22:38:42.776Z,16.30
2019-04-26T22:41:13.531Z,16.40
2019-04-26T22:44:03.856Z,14.87
2019-04-26T22:46:53.953Z,16.20
2019-04-26T22:49:24.725Z,16.27
2019-04-26T22:51:55.678Z,16.90
2019-04-26T22:54:26.289Z,17.27
2019-04-26T22:56:57.037Z,16.00
2019-04-26T22:59:27.670Z,16.67
2019-04-26T23:01:58.395Z,16.57
2019-04-26T23:04:29.038Z,16.30
2019-04-26T23:07:03.479Z,16.80
2019-04-26T23:09:34.175Z,16.40
2019-04-26T23:12:16.441Z,18.27
2019-04-26T23:15:06.479Z,19.00
2019-04-26T23:17:54.695Z,18.07
2019-04-26T23:20:34.335Z,17.70
2019-04-26T23:23:05.173Z,18.97
2019-04-26T23:25:34.488Z,19.83
2019-04-26T23:28:05.227Z,19.03
2019-04-26T23:30:36.964Z,19.67
2019-04-26T23:33:07.369Z,19.13
2019-04-26T23:35:43.488Z,19.63
2019-04-26T23:38:10.377Z,22.47
2019-04-26T23:40:41.008Z,21.37
2019-04-26T23:43:13.011Z,23.60
2019-04-26T23:45:48.300Z,24.73
2019-04-26T23:48:16.114Z,23.07
2019-04-26T23:50:46.822Z,22.70
2019-04-26T23:53:20.112Z,22.07
2019-04-26T23:55:49.539Z,21.67
2019-04-26T23:58:20.194Z,21.63
